sensor_id;sensor_type;location;lat;lon;timestamp;temperature;humidity
21832;DHT22;11078;49.872;6.188;2022-08-19T00:00:36;17.60;18.10
21832;DHT22;11078;49.872;6.188;2022-08-19T00:03:03;17.60;18.50
21832;DHT22;11078;49.872;6.188;2022-08-19T00:05:30;17.50;18.70
21832;DHT22;11078;49.872;6.188;2022-08-19T00:07:57;17.50;18.80
21832;DHT22;11078;49.872;6.188;2022-08-19T00:10:23;17.50;18.80
21832;DHT22;11078;49.872;6.188;2022-08-19T00:12:50;17.50;18.90
21832;DHT22;11078;49.872;6.188;2022-08-19T00:15:19;17.40;18.80
21832;DHT22;11078;49.872;6.188;2022-08-19T00:17:46;17.40;19.10
21832;DHT22;11078;49.872;6.188;2022-08-19T00:20:16;17.40;18.80
21832;DHT22;11078;49.872;6.188;2022-08-19T00:22:44;17.30;18.90
21832;DHT22;11078;49.872;6.188;2022-08-19T00:25:11;17.30;19.20
21832;DHT22;11078;49.872;6.188;2022-08-19T00:27:40;17.30;19.20
21832;DHT22;11078;49.872;6.188;2022-08-19T00:30:07;17.30;19.60
21832;DHT22;11078;49.872;6.188;2022-08-19T00:32:35;17.20;19.10
21832;DHT22;11078;49.872;6.188;2022-08-19T00:35:02;17.20;19.20
21832;DHT22;11078;49.872;6.188;2022-08-19T00:37:28;17.10;19.00
21832;DHT22;11078;49.872;6.188;2022-08-19T00:39:54;17.10;19.20
21832;DHT22;11078;49.872;6.188;2022-08-19T00:42:21;17.10;19.40
21832;DHT22;11078;49.872;6.188;2022-08-19T00:44:48;17.10;19.30
21832;DHT22;11078;49.872;6.188;2022-08-19T00:47:14;17.00;19.20
21832;DHT22;11078;49.872;6.188;2022-08-19T00:49:45;17.00;19.20
21832;DHT22;11078;49.872;6.188;2022-08-19T00:52:21;17.00;19.60
21832;DHT22;11078;49.872;6.188;2022-08-19T00:54:48;17.00;19.80
21832;DHT22;11078;49.872;6.188;2022-08-19T00:57:18;17.00;19.50
21832;DHT22;11078;49.872;6.188;2022-08-19T00:59:48;17.00;19.40
21832;DHT22;11078;49.872;6.188;2022-08-19T01:02:18;16.90;19.90
21832;DHT22;11078;49.872;6.188;2022-08-19T01:04:44;16.90;19.60
21832;DHT22;11078;49.872;6.188;2022-08-19T01:07:10;16.80;19.70
21832;DHT22;11078;49.872;6.188;2022-08-19T01:09:36;16.80;19.70
21832;DHT22;11078;49.872;6.188;2022-08-19T01:12:04;16.80;19.80
21832;DHT22;11078;49.872;6.188;2022-08-19T01:14:30;16.70;19.70
21832;DHT22;11078;49.872;6.188;2022-08-19T01:16:56;16.70;19.90
21832;DHT22;11078;49.872;6.188;2022-08-19T01:19:30;16.70;19.70
21832;DHT22;11078;49.872;6.188;2022-08-19T01:22:03;16.70;20.10
21832;DHT22;11078;49.872;6.188;2022-08-19T01:24:31;16.70;20.70
21832;DHT22;11078;49.872;6.188;2022-08-19T01:26:57;16.60;20.00
21832;DHT22;11078;49.872;6.188;2022-08-19T01:29:23;16.50;20.20
21832;DHT22;11078;49.872;6.188;2022-08-19T01:31:49;16.50;20.20
21832;DHT22;11078;49.872;6.188;2022-08-19T01:34:18;16.50;20.30
21832;DHT22;11078;49.872;6.188;2022-08-19T01:36:46;16.50;20.30
21832;DHT22;11078;49.872;6.188;2022-08-19T01:39:19;16.40;21.20
21832;DHT22;11078;49.872;6.188;2022-08-19T01:41:46;16.40;20.40
21832;DHT22;11078;49.872;6.188;2022-08-19T01:44:12;16.40;20.50
21832;DHT22;11078;49.872;6.188;2022-08-19T01:46:38;16.40;20.20
21832;DHT22;11078;49.872;6.188;2022-08-19T01:49:05;16.40;20.40
21832;DHT22;11078;49.872;6.188;2022-08-19T01:51:31;16.40;20.70
21832;DHT22;11078;49.872;6.188;2022-08-19T01:53:57;16.40;20.60
21832;DHT22;11078;49.872;6.188;2022-08-19T01:56:24;16.40;20.60
21832;DHT22;11078;49.872;6.188;2022-08-19T01:58:55;16.40;20.40
21832;DHT22;11078;49.872;6.188;2022-08-19T02:01:23;16.40;20.70
21832;DHT22;11078;49.872;6.188;2022-08-19T02:03:48;16.40;20.70
21832;DHT22;11078;49.872;6.188;2022-08-19T02:06:14;16.30;20.70
21832;DHT22;11078;49.872;6.188;2022-08-19T02:08:42;16.30;20.90
21832;DHT22;11078;49.872;6.188;2022-08-19T02:11:22;16.30;20.90
21832;DHT22;11078;49.872;6.188;2022-08-19T02:13:53;16.30;22.40
21832;DHT22;11078;49.872;6.188;2022-08-19T02:16:19;16.30;21.10
21832;DHT22;11078;49.872;6.188;2022-08-19T02:18:47;16.20;21.20
21832;DHT22;11078;49.872;6.188;2022-08-19T02:21:15;16.20;21.20
21832;DHT22;11078;49.872;6.188;2022-08-19T02:23:42;16.20;21.40
21832;DHT22;11078;49.872;6.188;2022-08-19T02:26:09;16.20;21.20
21832;DHT22;11078;49.872;6.188;2022-08-19T02:28:35;16.20;20.80
21832;DHT22;11078;49.872;6.188;2022-08-19T02:31:02;16.20;21.10
21832;DHT22;11078;49.872;6.188;2022-08-19T02:33:29;16.20;21.40
21832;DHT22;11078;49.872;6.188;2022-08-19T02:35:55;16.20;21.80
21832;DHT22;11078;49.872;6.188;2022-08-19T02:38:21;16.20;21.00
21832;DHT22;11078;49.872;6.188;2022-08-19T02:40:59;16.20;21.40
21832;DHT22;11078;49.872;6.188;2022-08-19T02:43:27;16.10;21.80
21832;DHT22;11078;49.872;6.188;2022-08-19T02:45:54;16.10;21.60
21832;DHT22;11078;49.872;6.188;2022-08-19T02:48:22;16.10;21.70
21832;DHT22;11078;49.872;6.188;2022-08-19T02:50:51;16.10;21.60
21832;DHT22;11078;49.872;6.188;2022-08-19T02:53:26;16.10;21.40
21832;DHT22;11078;49.872;6.188;2022-08-19T02:55:53;16.10;21.90
21832;DHT22;11078;49.872;6.188;2022-08-19T02:58:20;16.10;21.40
21832;DHT22;11078;49.872;6.188;2022-08-19T03:00:50;16.10;21.80
21832;DHT22;11078;49.872;6.188;2022-08-19T03:03:17;16.10;21.50
21832;DHT22;11078;49.872;6.188;2022-08-19T03:05:44;16.00;21.80
21832;DHT22;11078;49.872;6.188;2022-08-19T03:08:12;16.00;21.40
21832;DHT22;11078;49.872;6.188;2022-08-19T03:10:42;16.00;21.60
21832;DHT22;11078;49.872;6.188;2022-08-19T03:13:11;16.00;21.80
21832;DHT22;11078;49.872;6.188;2022-08-19T03:15:40;16.00;21.60
21832;DHT22;11078;49.872;6.188;2022-08-19T03:18:07;16.00;21.70
21832;DHT22;11078;49.872;6.188;2022-08-19T03:20:33;16.00;21.80
21832;DHT22;11078;49.872;6.188;2022-08-19T03:22:59;16.00;21.90
21832;DHT22;11078;49.872;6.188;2022-08-19T03:25:25;16.00;21.80
21832;DHT22;11078;49.872;6.188;2022-08-19T03:27:51;15.90;22.00
21832;DHT22;11078;49.872;6.188;2022-08-19T03:30:17;15.90;21.90
21832;DHT22;11078;49.872;6.188;2022-08-19T03:32:43;15.80;22.10
21832;DHT22;11078;49.872;6.188;2022-08-19T03:35:09;15.80;21.80
21832;DHT22;11078;49.872;6.188;2022-08-19T03:37:35;15.90;22.00
21832;DHT22;11078;49.872;6.188;2022-08-19T03:40:01;15.80;22.30
21832;DHT22;11078;49.872;6.188;2022-08-19T03:42:29;15.80;22.50
21832;DHT22;11078;49.872;6.188;2022-08-19T03:44:55;15.80;23.10
21832;DHT22;11078;49.872;6.188;2022-08-19T03:47:21;15.80;22.50
21832;DHT22;11078;49.872;6.188;2022-08-19T03:49:46;15.80;22.20
21832;DHT22;11078;49.872;6.188;2022-08-19T03:52:12;15.80;22.50
21832;DHT22;11078;49.872;6.188;2022-08-19T03:54:39;15.80;22.50
21832;DHT22;11078;49.872;6.188;2022-08-19T03:57:05;15.80;22.40
21832;DHT22;11078;49.872;6.188;2022-08-19T03:59:34;15.70;22.30
21832;DHT22;11078;49.872;6.188;2022-08-19T04:02:05;15.70;22.50
21832;DHT22;11078;49.872;6.188;2022-08-19T04:04:32;15.70;22.60
21832;DHT22;11078;49.872;6.188;2022-08-19T04:06:58;15.70;22.50
21832;DHT22;11078;49.872;6.188;2022-08-19T04:09:24;15.70;22.30
21832;DHT22;11078;49.872;6.188;2022-08-19T04:11:53;15.60;22.60
21832;DHT22;11078;49.872;6.188;2022-08-19T04:14:22;15.60;22.40
21832;DHT22;11078;49.872;6.188;2022-08-19T04:16:50;15.60;22.50
21832;DHT22;11078;49.872;6.188;2022-08-19T04:19:18;15.60;22.10
21832;DHT22;11078;49.872;6.188;2022-08-19T04:21:49;15.60;22.80
21832;DHT22;11078;49.872;6.188;2022-08-19T04:24:16;15.50;22.60
21832;DHT22;11078;49.872;6.188;2022-08-19T04:26:43;15.50;22.80
21832;DHT22;11078;49.872;6.188;2022-08-19T04:29:13;15.50;22.50
21832;DHT22;11078;49.872;6.188;2022-08-19T04:31:40;15.50;22.80
21832;DHT22;11078;49.872;6.188;2022-08-19T04:34:08;15.50;22.80
21832;DHT22;11078;49.872;6.188;2022-08-19T04:36:37;15.50;22.60
21832;DHT22;11078;49.872;6.188;2022-08-19T04:39:07;15.50;22.60
21832;DHT22;11078;49.872;6.188;2022-08-19T04:41:34;15.50;23.00
21832;DHT22;11078;49.872;6.188;2022-08-19T04:44:15;15.40;22.80
21832;DHT22;11078;49.872;6.188;2022-08-19T04:46:45;15.50;23.00
21832;DHT22;11078;49.872;6.188;2022-08-19T04:49:12;15.40;22.80
21832;DHT22;11078;49.872;6.188;2022-08-19T04:51:40;15.40;22.70
21832;DHT22;11078;49.872;6.188;2022-08-19T04:54:07;15.50;23.20
21832;DHT22;11078;49.872;6.188;2022-08-19T04:56:33;15.50;22.80
21832;DHT22;11078;49.872;6.188;2022-08-19T04:59:00;15.50;23.00
21832;DHT22;11078;49.872;6.188;2022-08-19T05:01:32;15.50;22.90
21832;DHT22;11078;49.872;6.188;2022-08-19T05:04:00;15.60;23.90
21832;DHT22;11078;49.872;6.188;2022-08-19T05:06:27;15.60;23.10
21832;DHT22;11078;49.872;6.188;2022-08-19T05:08:54;15.60;23.20
21832;DHT22;11078;49.872;6.188;2022-08-19T05:11:25;15.60;23.20
21832;DHT22;11078;49.872;6.188;2022-08-19T05:13:51;15.70;23.00
21832;DHT22;11078;49.872;6.188;2022-08-19T05:16:21;15.70;23.30
21832;DHT22;11078;49.872;6.188;2022-08-19T05:18:47;15.70;23.50
21832;DHT22;11078;49.872;6.188;2022-08-19T05:21:29;15.70;23.00
21832;DHT22;11078;49.872;6.188;2022-08-19T05:24:11;15.80;23.20
21832;DHT22;11078;49.872;6.188;2022-08-19T05:26:40;15.80;23.10
21832;DHT22;11078;49.872;6.188;2022-08-19T05:29:07;15.90;23.80
21832;DHT22;11078;49.872;6.188;2022-08-19T05:31:35;15.90;23.20
21832;DHT22;11078;49.872;6.188;2022-08-19T05:34:02;16.00;23.20
21832;DHT22;11078;49.872;6.188;2022-08-19T05:36:35;16.10;23.30
21832;DHT22;11078;49.872;6.188;2022-08-19T05:39:05;16.10;23.60
21832;DHT22;11078;49.872;6.188;2022-08-19T05:41:31;16.10;23.20
21832;DHT22;11078;49.872;6.188;2022-08-19T05:44:00;16.20;23.20
21832;DHT22;11078;49.872;6.188;2022-08-19T05:46:26;16.30;23.30
21832;DHT22;11078;49.872;6.188;2022-08-19T05:48:52;16.30;22.90
21832;DHT22;11078;49.872;6.188;2022-08-19T05:51:22;16.50;23.10
21832;DHT22;11078;49.872;6.188;2022-08-19T05:53:50;16.50;23.00
21832;DHT22;11078;49.872;6.188;2022-08-19T05:56:17;16.70;23.50
21832;DHT22;11078;49.872;6.188;2022-08-19T05:58:45;16.70;23.30
21832;DHT22;11078;49.872;6.188;2022-08-19T06:01:13;16.80;22.90
21832;DHT22;11078;49.872;6.188;2022-08-19T06:03:40;17.00;22.90
21832;DHT22;11078;49.872;6.188;2022-08-19T06:06:08;17.10;23.00
21832;DHT22;11078;49.872;6.188;2022-08-19T06:08:36;17.20;22.70
21832;DHT22;11078;49.872;6.188;2022-08-19T06:11:23;17.40;22.80
21832;DHT22;11078;49.872;6.188;2022-08-19T06:13:52;17.70;24.40
21832;DHT22;11078;49.872;6.188;2022-08-19T06:16:20;18.00;22.80
21832;DHT22;11078;49.872;6.188;2022-08-19T06:18:50;18.50;21.20
21832;DHT22;11078;49.872;6.188;2022-08-19T06:21:19;19.00;20.60
21832;DHT22;11078;49.872;6.188;2022-08-19T06:23:46;19.50;19.80
21832;DHT22;11078;49.872;6.188;2022-08-19T06:26:14;20.00;19.10
21832;DHT22;11078;49.872;6.188;2022-08-19T06:28:40;20.50;18.80
21832;DHT22;11078;49.872;6.188;2022-08-19T06:31:10;21.10;18.00
21832;DHT22;11078;49.872;6.188;2022-08-19T06:33:38;21.70;17.20
21832;DHT22;11078;49.872;6.188;2022-08-19T06:36:04;22.20;16.40
21832;DHT22;11078;49.872;6.188;2022-08-19T06:38:31;22.80;15.60
21832;DHT22;11078;49.872;6.188;2022-08-19T06:41:03;23.30;14.80
21832;DHT22;11078;49.872;6.188;2022-08-19T06:43:29;23.70;13.90
21832;DHT22;11078;49.872;6.188;2022-08-19T06:45:55;24.10;13.80
21832;DHT22;11078;49.872;6.188;2022-08-19T06:48:21;24.40;13.30
21832;DHT22;11078;49.872;6.188;2022-08-19T06:50:49;24.50;12.90
21832;DHT22;11078;49.872;6.188;2022-08-19T06:53:17;24.80;12.40
21832;DHT22;11078;49.872;6.188;2022-08-19T06:55:45;25.10;12.20
21832;DHT22;11078;49.872;6.188;2022-08-19T06:58:11;25.40;11.90
21832;DHT22;11078;49.872;6.188;2022-08-19T07:00:38;25.50;11.80
21832;DHT22;11078;49.872;6.188;2022-08-19T07:03:04;25.60;11.50
21832;DHT22;11078;49.872;6.188;2022-08-19T07:05:30;25.60;11.60
21832;DHT22;11078;49.872;6.188;2022-08-19T07:07:56;25.70;11.60
21832;DHT22;11078;49.872;6.188;2022-08-19T07:10:23;25.80;11.60
21832;DHT22;11078;49.872;6.188;2022-08-19T07:12:49;25.90;11.30
21832;DHT22;11078;49.872;6.188;2022-08-19T07:15:17;26.00;11.20
21832;DHT22;11078;49.872;6.188;2022-08-19T07:17:43;25.90;10.80
21832;DHT22;11078;49.872;6.188;2022-08-19T07:20:10;25.70;11.10
21832;DHT22;11078;49.872;6.188;2022-08-19T07:22:40;25.60;11.20
21832;DHT22;11078;49.872;6.188;2022-08-19T07:25:08;25.40;11.60
21832;DHT22;11078;49.872;6.188;2022-08-19T07:27:35;25.20;11.80
21832;DHT22;11078;49.872;6.188;2022-08-19T07:30:02;25.20;12.20
21832;DHT22;11078;49.872;6.188;2022-08-19T07:32:28;25.20;12.30
21832;DHT22;11078;49.872;6.188;2022-08-19T07:34:55;25.20;12.20
21832;DHT22;11078;49.872;6.188;2022-08-19T07:37:21;25.30;12.00
21832;DHT22;11078;49.872;6.188;2022-08-19T07:39:48;25.20;11.80
21832;DHT22;11078;49.872;6.188;2022-08-19T07:42:14;25.10;11.80
21832;DHT22;11078;49.872;6.188;2022-08-19T07:44:41;25.00;12.20
21832;DHT22;11078;49.872;6.188;2022-08-19T07:47:07;25.00;12.30
21832;DHT22;11078;49.872;6.188;2022-08-19T07:49:34;25.10;12.40
21832;DHT22;11078;49.872;6.188;2022-08-19T07:52:03;25.20;12.20
21832;DHT22;11078;49.872;6.188;2022-08-19T07:54:33;25.20;12.30
21832;DHT22;11078;49.872;6.188;2022-08-19T07:57:02;25.40;11.90
21832;DHT22;11078;49.872;6.188;2022-08-19T07:59:29;25.50;11.90
21832;DHT22;11078;49.872;6.188;2022-08-19T08:01:58;25.50;11.70
21832;DHT22;11078;49.872;6.188;2022-08-19T08:04:27;25.60;11.60
21832;DHT22;11078;49.872;6.188;2022-08-19T08:07:08;25.80;11.50
21832;DHT22;11078;49.872;6.188;2022-08-19T08:09:51;25.80;11.50
21832;DHT22;11078;49.872;6.188;2022-08-19T08:12:22;26.10;11.40
21832;DHT22;11078;49.872;6.188;2022-08-19T08:14:53;26.20;10.30
21832;DHT22;11078;49.872;6.188;2022-08-19T08:17:23;26.40;10.30
21832;DHT22;11078;49.872;6.188;2022-08-19T08:19:49;26.40;10.50
21832;DHT22;11078;49.872;6.188;2022-08-19T08:22:19;26.60;10.50
21832;DHT22;11078;49.872;6.188;2022-08-19T08:25:08;27.00;10.70
21832;DHT22;11078;49.872;6.188;2022-08-19T08:27:37;27.40;9.50
21832;DHT22;11078;49.872;6.188;2022-08-19T08:30:08;27.70;9.40
21832;DHT22;11078;49.872;6.188;2022-08-19T08:32:36;27.90;8.70
21832;DHT22;11078;49.872;6.188;2022-08-19T08:35:06;28.20;9.30
21832;DHT22;11078;49.872;6.188;2022-08-19T08:37:33;28.50;8.40
21832;DHT22;11078;49.872;6.188;2022-08-19T08:40:07;28.70;8.50
21832;DHT22;11078;49.872;6.188;2022-08-19T08:42:39;28.70;7.00
21832;DHT22;11078;49.872;6.188;2022-08-19T08:45:13;28.90;7.00
21832;DHT22;11078;49.872;6.188;2022-08-19T08:47:44;28.80;5.90
21832;DHT22;11078;49.872;6.188;2022-08-19T08:50:21;28.70;7.60
21832;DHT22;11078;49.872;6.188;2022-08-19T08:52:52;28.70;7.10
21832;DHT22;11078;49.872;6.188;2022-08-19T08:55:27;28.80;6.60
21832;DHT22;11078;49.872;6.188;2022-08-19T08:58:02;29.20;7.60
21832;DHT22;11078;49.872;6.188;2022-08-19T09:00:34;29.50;6.30
21832;DHT22;11078;49.872;6.188;2022-08-19T09:03:02;29.60;6.10
21832;DHT22;11078;49.872;6.188;2022-08-19T09:05:45;29.50;6.30
21832;DHT22;11078;49.872;6.188;2022-08-19T09:11:03;29.60;4.60
21832;DHT22;11078;49.872;6.188;2022-08-19T09:16:32;29.60;3.30
21832;DHT22;11078;49.872;6.188;2022-08-19T09:19:03;29.50;6.40
21832;DHT22;11078;49.872;6.188;2022-08-19T09:21:29;29.50;6.00
21832;DHT22;11078;49.872;6.188;2022-08-19T09:23:55;29.50;6.40
21832;DHT22;11078;49.872;6.188;2022-08-19T09:26:23;29.40;6.10
21832;DHT22;11078;49.872;6.188;2022-08-19T09:28:51;29.20;6.00
21832;DHT22;11078;49.872;6.188;2022-08-19T09:31:22;29.00;4.50
21832;DHT22;11078;49.872;6.188;2022-08-19T09:33:50;29.00;5.00
21832;DHT22;11078;49.872;6.188;2022-08-19T09:36:19;29.00;6.10
21832;DHT22;11078;49.872;6.188;2022-08-19T09:38:45;29.00;5.70
21832;DHT22;11078;49.872;6.188;2022-08-19T09:41:14;29.20;5.80
21832;DHT22;11078;49.872;6.188;2022-08-19T09:43:43;29.40;5.40
21832;DHT22;11078;49.872;6.188;2022-08-19T09:46:10;29.30;5.70
21832;DHT22;11078;49.872;6.188;2022-08-19T09:48:36;29.10;5.50
21832;DHT22;11078;49.872;6.188;2022-08-19T09:51:05;28.90;5.30
21832;DHT22;11078;49.872;6.188;2022-08-19T09:53:34;29.00;5.50
21832;DHT22;11078;49.872;6.188;2022-08-19T09:56:01;29.30;5.70
21832;DHT22;11078;49.872;6.188;2022-08-19T09:58:28;29.50;5.30
21832;DHT22;11078;49.872;6.188;2022-08-19T10:00:56;29.70;5.10
21832;DHT22;11078;49.872;6.188;2022-08-19T10:03:24;29.50;4.40
21832;DHT22;11078;49.872;6.188;2022-08-19T10:05:51;29.60;4.70
21832;DHT22;11078;49.872;6.188;2022-08-19T10:08:21;29.80;4.40
21832;DHT22;11078;49.872;6.188;2022-08-19T10:10:48;29.80;3.60
21832;DHT22;11078;49.872;6.188;2022-08-19T10:13:33;29.70;4.10
21832;DHT22;11078;49.872;6.188;2022-08-19T10:16:07;29.90;2.70
21832;DHT22;11078;49.872;6.188;2022-08-19T10:18:53;30.10;1.90
21832;DHT22;11078;49.872;6.188;2022-08-19T10:21:22;30.30;3.70
21832;DHT22;11078;49.872;6.188;2022-08-19T10:23:51;30.60;3.90
21832;DHT22;11078;49.872;6.188;2022-08-19T10:29:12;30.50;2.30
21832;DHT22;11078;49.872;6.188;2022-08-19T10:31:41;30.30;3.50
21832;DHT22;11078;49.872;6.188;2022-08-19T10:34:08;30.20;3.60
21832;DHT22;11078;49.872;6.188;2022-08-19T10:36:36;30.20;3.70
21832;DHT22;11078;49.872;6.188;2022-08-19T10:39:06;30.10;3.50
21832;DHT22;11078;49.872;6.188;2022-08-19T10:41:36;29.90;2.70
21832;DHT22;11078;49.872;6.188;2022-08-19T10:44:06;29.70;3.10
21832;DHT22;11078;49.872;6.188;2022-08-19T10:46:36;29.60;3.10
21832;DHT22;11078;49.872;6.188;2022-08-19T10:49:04;29.50;3.10
21832;DHT22;11078;49.872;6.188;2022-08-19T10:51:31;29.50;3.40
21832;DHT22;11078;49.872;6.188;2022-08-19T10:54:18;29.50;3.80
21832;DHT22;11078;49.872;6.188;2022-08-19T10:56:44;29.30;3.70
21832;DHT22;11078;49.872;6.188;2022-08-19T10:59:23;29.30;3.50
21832;DHT22;11078;49.872;6.188;2022-08-19T11:01:51;29.30;2.50
21832;DHT22;11078;49.872;6.188;2022-08-19T11:04:19;29.30;3.10
21832;DHT22;11078;49.872;6.188;2022-08-19T11:06:47;29.40;2.90
21832;DHT22;11078;49.872;6.188;2022-08-19T11:09:21;29.60;2.70
21832;DHT22;11078;49.872;6.188;2022-08-19T11:11:47;29.80;2.60
21832;DHT22;11078;49.872;6.188;2022-08-19T11:14:16;29.80;2.90
21832;DHT22;11078;49.872;6.188;2022-08-19T11:16:44;29.60;2.40
21832;DHT22;11078;49.872;6.188;2022-08-19T11:19:11;29.50;2.70
21832;DHT22;11078;49.872;6.188;2022-08-19T11:21:41;29.30;2.90
21832;DHT22;11078;49.872;6.188;2022-08-19T11:24:10;29.50;2.90
21832;DHT22;11078;49.872;6.188;2022-08-19T11:26:37;29.80;2.10
21832;DHT22;11078;49.872;6.188;2022-08-19T11:29:05;30.00;1.10
21832;DHT22;11078;49.872;6.188;2022-08-19T11:31:34;30.00;1.80
21832;DHT22;11078;49.872;6.188;2022-08-19T11:34:03;30.10;1.10
21832;DHT22;11078;49.872;6.188;2022-08-19T11:36:34;30.00;1.00
21832;DHT22;11078;49.872;6.188;2022-08-19T11:39:01;29.90;1.00
21832;DHT22;11078;49.872;6.188;2022-08-19T11:41:28;30.00;1.00
21832;DHT22;11078;49.872;6.188;2022-08-19T11:43:54;30.20;1.00
21832;DHT22;11078;49.872;6.188;2022-08-19T11:46:23;30.40;1.00
21832;DHT22;11078;49.872;6.188;2022-08-19T11:48:49;30.70;1.00
21832;DHT22;11078;49.872;6.188;2022-08-19T11:51:19;30.70;1.00
21832;DHT22;11078;49.872;6.188;2022-08-19T11:53:47;30.80;1.00
21832;DHT22;11078;49.872;6.188;2022-08-19T11:56:13;30.80;1.00
21832;DHT22;11078;49.872;6.188;2022-08-19T11:58:40;30.80;1.00
21832;DHT22;11078;49.872;6.188;2022-08-19T12:01:10;30.90;1.00
21832;DHT22;11078;49.872;6.188;2022-08-19T12:03:38;31.00;1.00
21832;DHT22;11078;49.872;6.188;2022-08-19T12:06:07;31.00;1.00
21832;DHT22;11078;49.872;6.188;2022-08-19T12:08:33;30.90;1.00
21832;DHT22;11078;49.872;6.188;2022-08-19T12:10:59;30.80;1.00
21832;DHT22;11078;49.872;6.188;2022-08-19T12:13:28;30.70;1.00
21832;DHT22;11078;49.872;6.188;2022-08-19T12:15:54;30.50;1.00
21832;DHT22;11078;49.872;6.188;2022-08-19T12:18:20;30.30;1.00
21832;DHT22;11078;49.872;6.188;2022-08-19T12:20:46;30.10;1.00
21832;DHT22;11078;49.872;6.188;2022-08-19T12:23:13;30.20;1.00
21832;DHT22;11078;49.872;6.188;2022-08-19T12:25:46;30.40;1.00
21832;DHT22;11078;49.872;6.188;2022-08-19T12:28:16;30.40;1.00
21832;DHT22;11078;49.872;6.188;2022-08-19T12:30:43;30.30;1.00
21832;DHT22;11078;49.872;6.188;2022-08-19T12:33:09;30.10;1.00
21832;DHT22;11078;49.872;6.188;2022-08-19T12:35:35;30.10;1.00
21832;DHT22;11078;49.872;6.188;2022-08-19T12:38:01;29.90;1.00
21832;DHT22;11078;49.872;6.188;2022-08-19T12:40:28;29.80;1.00
21832;DHT22;11078;49.872;6.188;2022-08-19T12:42:54;29.70;1.00
21832;DHT22;11078;49.872;6.188;2022-08-19T12:45:21;29.50;1.00
21832;DHT22;11078;49.872;6.188;2022-08-19T12:47:47;29.40;1.00
21832;DHT22;11078;49.872;6.188;2022-08-19T12:50:13;29.20;1.00
21832;DHT22;11078;49.872;6.188;2022-08-19T12:52:40;29.10;1.00
21832;DHT22;11078;49.872;6.188;2022-08-19T12:55:08;29.30;1.00
21832;DHT22;11078;49.872;6.188;2022-08-19T12:57:35;29.60;1.00
21832;DHT22;11078;49.872;6.188;2022-08-19T13:02:56;30.30;1.00
21832;DHT22;11078;49.872;6.188;2022-08-19T13:05:25;30.60;1.00
21832;DHT22;11078;49.872;6.188;2022-08-19T13:07:53;30.90;1.00
21832;DHT22;11078;49.872;6.188;2022-08-19T13:10:23;30.80;1.00
21832;DHT22;11078;49.872;6.188;2022-08-19T13:12:51;30.90;1.00
21832;DHT22;11078;49.872;6.188;2022-08-19T13:15:20;30.80;1.00
21832;DHT22;11078;49.872;6.188;2022-08-19T13:17:49;30.70;1.00
21832;DHT22;11078;49.872;6.188;2022-08-19T13:20:17;30.70;1.00
21832;DHT22;11078;49.872;6.188;2022-08-19T13:22:45;30.60;1.00
21832;DHT22;11078;49.872;6.188;2022-08-19T13:25:12;30.40;1.00
21832;DHT22;11078;49.872;6.188;2022-08-19T13:27:39;30.10;1.00
21832;DHT22;11078;49.872;6.188;2022-08-19T13:30:08;29.90;1.00
21832;DHT22;11078;49.872;6.188;2022-08-19T13:32:50;29.90;1.00
21832;DHT22;11078;49.872;6.188;2022-08-19T13:35:31;29.90;1.00
21832;DHT22;11078;49.872;6.188;2022-08-19T13:37:57;30.10;1.00
21832;DHT22;11078;49.872;6.188;2022-08-19T13:40:24;30.20;1.00
21832;DHT22;11078;49.872;6.188;2022-08-19T13:42:54;30.20;1.00
21832;DHT22;11078;49.872;6.188;2022-08-19T13:45:22;30.30;1.00
21832;DHT22;11078;49.872;6.188;2022-08-19T13:47:51;30.40;1.00
21832;DHT22;11078;49.872;6.188;2022-08-19T13:50:21;30.60;1.00
21832;DHT22;11078;49.872;6.188;2022-08-19T13:52:48;30.90;1.00
21832;DHT22;11078;49.872;6.188;2022-08-19T13:55:15;31.00;1.00
21832;DHT22;11078;49.872;6.188;2022-08-19T13:57:41;31.00;1.00
21832;DHT22;11078;49.872;6.188;2022-08-19T14:00:11;30.90;1.00
21832;DHT22;11078;49.872;6.188;2022-08-19T14:02:38;30.80;1.00
21832;DHT22;11078;49.872;6.188;2022-08-19T14:05:07;30.90;1.00
21832;DHT22;11078;49.872;6.188;2022-08-19T14:07:34;30.90;1.00
21832;DHT22;11078;49.872;6.188;2022-08-19T14:10:02;30.70;1.00
21832;DHT22;11078;49.872;6.188;2022-08-19T14:12:29;30.40;1.00
21832;DHT22;11078;49.872;6.188;2022-08-19T14:14:55;30.30;1.00
21832;DHT22;11078;49.872;6.188;2022-08-19T14:17:21;30.30;1.00
21832;DHT22;11078;49.872;6.188;2022-08-19T14:19:46;30.40;1.00
21832;DHT22;11078;49.872;6.188;2022-08-19T14:22:13;30.40;1.00
21832;DHT22;11078;49.872;6.188;2022-08-19T14:24:39;30.40;1.00
21832;DHT22;11078;49.872;6.188;2022-08-19T14:27:05;30.20;1.00
21832;DHT22;11078;49.872;6.188;2022-08-19T14:29:32;30.00;1.00
21832;DHT22;11078;49.872;6.188;2022-08-19T14:31:59;29.80;1.00
21832;DHT22;11078;49.872;6.188;2022-08-19T14:34:26;29.60;1.00
21832;DHT22;11078;49.872;6.188;2022-08-19T14:36:52;29.50;1.00
21832;DHT22;11078;49.872;6.188;2022-08-19T14:39:18;29.50;1.00
21832;DHT22;11078;49.872;6.188;2022-08-19T14:41:44;29.60;1.00
21832;DHT22;11078;49.872;6.188;2022-08-19T14:44:11;29.60;1.00
21832;DHT22;11078;49.872;6.188;2022-08-19T14:46:39;29.60;1.00
21832;DHT22;11078;49.872;6.188;2022-08-19T14:49:06;29.70;1.00
21832;DHT22;11078;49.872;6.188;2022-08-19T14:51:33;29.70;1.00
21832;DHT22;11078;49.872;6.188;2022-08-19T14:53:59;29.60;1.00
21832;DHT22;11078;49.872;6.188;2022-08-19T14:56:28;29.50;1.00
21832;DHT22;11078;49.872;6.188;2022-08-19T14:58:55;29.40;1.00
21832;DHT22;11078;49.872;6.188;2022-08-19T15:01:25;29.40;1.00
21832;DHT22;11078;49.872;6.188;2022-08-19T15:03:51;29.40;1.00
21832;DHT22;11078;49.872;6.188;2022-08-19T15:06:20;29.50;1.00
21832;DHT22;11078;49.872;6.188;2022-08-19T15:08:46;29.40;1.00
21832;DHT22;11078;49.872;6.188;2022-08-19T15:11:15;29.40;1.00
21832;DHT22;11078;49.872;6.188;2022-08-19T15:13:42;29.30;1.00
21832;DHT22;11078;49.872;6.188;2022-08-19T15:16:10;29.30;1.00
21832;DHT22;11078;49.872;6.188;2022-08-19T15:18:36;29.40;1.00
21832;DHT22;11078;49.872;6.188;2022-08-19T15:21:03;29.50;1.00
21832;DHT22;11078;49.872;6.188;2022-08-19T15:23:30;29.60;1.00
21832;DHT22;11078;49.872;6.188;2022-08-19T15:25:57;29.70;1.00
21832;DHT22;11078;49.872;6.188;2022-08-19T15:28:24;29.70;1.00
21832;DHT22;11078;49.872;6.188;2022-08-19T15:30:51;29.80;1.00
21832;DHT22;11078;49.872;6.188;2022-08-19T15:33:17;29.90;1.00
21832;DHT22;11078;49.872;6.188;2022-08-19T15:35:46;29.70;1.00
21832;DHT22;11078;49.872;6.188;2022-08-19T15:38:15;29.60;1.00
21832;DHT22;11078;49.872;6.188;2022-08-19T15:40:44;29.40;1.00
21832;DHT22;11078;49.872;6.188;2022-08-19T15:43:11;29.30;1.00
21832;DHT22;11078;49.872;6.188;2022-08-19T15:45:37;29.40;1.00
21832;DHT22;11078;49.872;6.188;2022-08-19T15:48:04;29.30;1.00
21832;DHT22;11078;49.872;6.188;2022-08-19T15:50:32;29.40;1.00
21832;DHT22;11078;49.872;6.188;2022-08-19T15:53:03;29.50;1.00
21832;DHT22;11078;49.872;6.188;2022-08-19T15:55:32;29.50;1.00